Weather observations for the past three days for
Visalia, Visalia Municipal Airport
Imperial (Metric)
Date Time (pdt) Wind (mph) Vis. (mi.) Weather Sky Cond. Temperature (ºF) Relative Humidity Wind Chill (°F) Heat Index (°F) Pressure Precipitation (in)
Air Dwpt 6 hour altimeter (in) sea level (mb) 1 hr 3 hr 6 hr
Max. Min.
03 11:56 Vrbl 5 10.00 Overcast OVC038 71.1 51.1 49% 29.91 1012.6
03 10:56 Vrbl 3 10.00 A Few Clouds FEW032 68 51.1 68 55 55% 29.91 1012.8
03 09:56 N 8 10.00 Fair CLR 64.9 52 63% 29.91 1012.6
03 08:56 NW 9 10.00 Mostly Cloudy BKN021 62.1 52 70% 29.9 1012.3
03 07:56 NW 7 10.00 Overcast OVC023 57.9 52 81% 29.89 1011.9
03 06:56 Calm 10.00 Fair CLR 55 52 90% 29.86 1011.1
03 05:56 Calm 10.00 Fair CLR 55 52 90% 29.83 1010.1
03 04:56 W 3 10.00 Fair CLR 57 53.1 69.1 57 87% 29.82 1009.7
03 03:56 NW 5 10.00 Fair CLR 59 53.1 81% 29.82 1009.5
03 02:56 W 7 10.00 Fair CLR 60.1 54 80% 29.81 1009.4
03 01:56 NW 9 10.00 Fair CLR 62.1 55.9 80% 29.81 1009.1
03 00:56 NW 8 10.00 Fair CLR 64.9 57 76% 29.8 1009.0
02 23:56 NW 8 10.00 Fair CLR 66.9 57.9 73% 29.8 1008.9
02 22:56 NW 10 10.00 Fair CLR 69.1 57.9 90 69.1 68% 29.8 1009.0
02 21:56 NW 12 10.00 Fair CLR 73 57.9 59% 29.79 1008.5
02 20:56 W 10 10.00 Fair CLR 75.9 57 52% 78 29.76 1007.7
02 19:56 W 7 10.00 Fair CLR 81 46 29% 80 29.75 1007.2
02 18:56 N 5 10.00 Fair CLR 84.9 48.9 29% 83 29.74 1006.9
02 17:56 N 7 10.00 Fair CLR 88 46.9 24% 85 29.74 1007.0
02 16:56 NW 8 10.00 Fair CLR 90 48 90 75 24% 87 29.75 1007.1
02 15:56 Calm 10.00 Fair CLR 89.1 48.9 25% 86 29.77 1007.9
02 14:56 Vrbl 5 10.00 Fair CLR 88 50 27% 85 29.81 1009.2
02 13:56 NW 6 10.00 Fair CLR 86 48 27% 83 29.84 1010.2
02 12:56 N 5 10.00 Fair CLR 82.9 54 37% 82 29.86 1011.0
02 11:56 Vrbl 3 10.00 Fair CLR 80.1 57 45% 80 29.88 1011.7
02 10:56 Calm 10.00 Fair CLR 75 57.9 75 55.9 55% 78 29.9 1012.3
02 09:56 E 6 9.00 Fair CLR 73 57 57% 29.9 1012.3
02 08:56 Vrbl 5 10.00 Fair CLR 66 55.9 70% 29.92 1012.9
02 07:56 S 3 10.00 Fair CLR 61 55 81% 29.9 1012.4
02 06:56 SE 3 9.00 Fair CLR 57.9 55 90% 29.88 1011.6
02 05:56 SE 6 9.00 Fair CLR 55.9 55 97% 29.85 1010.8
02 04:56 Calm 10.00 Fair CLR 57.9 55.9 71.1 57.9 93% 29.85 1010.5
02 03:56 Calm 10.00 Fair CLR 61 57 87% 29.85 1010.5
02 02:56 NW 3 10.00 Fair CLR 63 57 81% 29.85 1010.5
02 01:56 Calm 10.00 Fair CLR 63 55.9 78% 29.87 1011.3
02 00:56 Calm 10.00 Fair CLR 66 55.9 70% 29.88 1011.6
01 23:56 Calm 10.00 Fair CLR 66 57 73% 29.87 1011.3
01 22:56 Calm 10.00 Fair CLR 71.1 55.9 88 70 59% 29.86 1010.9
01 21:56 NW 5 10.00 Fair CLR 73.9 54 50% 29.85 1010.6
01 20:56 NW 6 10.00 Fair CLR 75.9 54 47% 78 29.83 1010.0
01 19:56 NW 8 10.00 Fair CLR 80.1 53.1 39% 80 29.81 1009.4
01 18:56 NW 8 10.00 Fair CLR 84.9 54 35% 83 29.81 1009.3
01 17:56 N 8 10.00 Fair CLR 87.1 53.1 31% 85 29.81 1009.5
01 16:56 NW 9 10.00 Fair CLR 88 50 89.1 75 27% 85 29.83 1009.9
01 15:56 NW 9 10.00 Fair CLR 88 52 29% 86 29.84 1010.3
01 14:56 NW 8 10.00 Fair CLR 86 52 31% 84 29.88 1011.5
01 13:56 W 7 10.00 Fair CLR 84 52 33% 82 29.89 1012.1
01 12:56 Vrbl 5 10.00 Fair CLR 81 52 37% 80 29.91 1012.8
01 11:56 W 8 10.00 Fair CLR 79 51.1 38% 79 29.94 1013.8
01 10:56 W 6 10.00 Fair CLR 75 52 75 54 45% 78 29.96 1014.4
01 09:56 Calm 10.00 Fair CLR 70 54 57% 29.97 1014.8
01 08:56 Calm 10.00 Fair CLR 66 53.1 63% 29.97 1014.7
01 07:56 Calm 10.00 Fair CLR 61 52 72% 29.96 1014.5
01 06:56 S 3 10.00 Fair CLR 57 53.1 87% 29.94 1013.8
01 05:56 SE 3 10.00 Fair CLR 55 53.1 93% 29.92 1013.0
01 04:56 SE 5 10.00 Fair CLR 55.9 52 69.1 55.9 87% 29.91 1012.6
01 03:56 Calm 10.00 Fair CLR 57.9 53.1 84% 29.91 1012.7
01 02:56 Calm 10.00 Fair CLR 62.1 54 75% 29.9 1012.4
01 01:56 N 3 10.00 Fair CLR 64 54 70% 29.91 1012.6
01 00:56 NW 6 10.00 Fair CLR 64.9 54 68% 29.9 1012.3
30 23:56 NW 6 10.00 Fair CLR 66.9 54 63% 29.88 1011.8
30 22:56 NW 6 10.00 Fair CLR 68 53.1 84.9 66.9 59% 29.88 1011.7
30 21:56 NW 9 10.00 Fair CLR 71.1 53.1 53% 29.87 1011.3
30 20:56 NW 7 10.00 Fair CLR 73.9 54 50% 29.85 1010.7
30 19:56 NW 8 10.00 Fair CLR 78.1 52 40% 79 29.84 1010.2
30 18:56 NW 12 10.00 Fair CLR 82 51.1 34% 81 29.83 1009.8
30 17:56 N 9 10.00 Fair CLR 84 48.9 30% 82 29.83 1009.9
30 16:56 N 8 10.00 Fair CLR 84 52 84 70 33% 82 29.83 1010.0
30 15:56 N 10 10.00 Fair CLR 82.9 51.1 33% 81 29.85 1010.8
30 14:56 N 6 10.00 Fair CLR 82.9 50 32% 81 29.88 1011.7
30 13:56 NW 9 7.00 Fair CLR 80.1 52 38% 80 29.9 1012.2
30 12:56 Vrbl 6 10.00 Fair CLR 77 51.1 40% 78 29.91 1012.8
Date Time (pdt) Wind (mph) Vis. (mi.) Weather Sky Cond. Air Dwpt Max. Min. Relative Humidity Wind Chill (°F) Heat Index (°F) altimeter (in) sea level (mb) 1 hr 3 hr 6 hr
6 hour
Temperature (ºF) Pressure Precipitation (in)